sensor_id;sensor_type;location;lat;lon;timestamp;P1;durP1;ratioP1;P2;durP2;ratioP2
75922;SDS011;64602;47.542;19.090;2023-02-21T07:07:54;7.10;;;1.80;;
75922;SDS011;64602;47.542;19.090;2023-02-21T07:12:57;4.70;;;1.25;;
75922;SDS011;64602;47.542;19.090;2023-02-21T07:17:59;11.32;;;1.90;;
75922;SDS011;64602;47.542;19.090;2023-02-21T07:23:01;4.27;;;1.40;;
75922;SDS011;64602;47.542;19.090;2023-02-21T07:28:03;2.92;;;1.20;;
75922;SDS011;64602;47.542;19.090;2023-02-21T07:33:05;3.15;;;1.23;;
75922;SDS011;64602;47.542;19.090;2023-02-21T07:38:08;5.67;;;1.40;;
75922;SDS011;64602;47.542;19.090;2023-02-21T07:43:10;3.90;;;1.30;;
75922;SDS011;64602;47.542;19.090;2023-02-21T07:48:12;3.33;;;1.17;;
75922;SDS011;64602;47.542;19.090;2023-02-21T07:53:16;3.10;;;1.30;;
75922;SDS011;64602;47.542;19.090;2023-02-21T07:58:19;4.53;;;1.40;;
75922;SDS011;64602;47.542;19.090;2023-02-21T08:03:22;3.62;;;1.50;;
75922;SDS011;64602;47.542;19.090;2023-02-21T08:08:24;4.65;;;1.45;;
75922;SDS011;64602;47.542;19.090;2023-02-21T08:13:26;5.83;;;1.40;;
75922;SDS011;64602;47.542;19.090;2023-02-21T08:18:28;4.90;;;1.23;;
75922;SDS011;64602;47.542;19.090;2023-02-21T08:23:30;3.80;;;1.08;;
75922;SDS011;64602;47.542;19.090;2023-02-21T08:28:32;6.03;;;1.30;;
75922;SDS011;64602;47.542;19.090;2023-02-21T08:33:35;3.42;;;1.15;;
75922;SDS011;64602;47.542;19.090;2023-02-21T08:38:37;3.78;;;1.00;;
75922;SDS011;64602;47.542;19.090;2023-02-21T08:43:40;3.33;;;0.93;;
75922;SDS011;64602;47.542;19.090;2023-02-21T08:48:42;2.73;;;1.27;;
75922;SDS011;64602;47.542;19.090;2023-02-21T08:53:44;4.05;;;1.35;;
75922;SDS011;64602;47.542;19.090;2023-02-21T08:58:46;2.22;;;1.08;;
75922;SDS011;64602;47.542;19.090;2023-02-21T09:03:49;3.03;;;1.00;;
75922;SDS011;64602;47.542;19.090;2023-02-21T09:08:51;4.55;;;1.27;;
75922;SDS011;64602;47.542;19.090;2023-02-21T09:13:53;6.65;;;1.33;;
75922;SDS011;64602;47.542;19.090;2023-02-21T09:18:56;3.20;;;1.03;;
75922;SDS011;64602;47.542;19.090;2023-02-21T09:24:00;4.12;;;0.90;;
75922;SDS011;64602;47.542;19.090;2023-02-21T09:29:03;3.25;;;1.20;;
75922;SDS011;64602;47.542;19.090;2023-02-21T09:34:05;2.37;;;1.00;;
75922;SDS011;64602;47.542;19.090;2023-02-21T09:39:08;5.23;;;1.00;;
75922;SDS011;64602;47.542;19.090;2023-02-21T09:44:16;5.25;;;1.40;;
75922;SDS011;64602;47.542;19.090;2023-02-21T09:54:29;2.73;;;1.10;;
75922;SDS011;64602;47.542;19.090;2023-02-21T09:59:44;3.03;;;0.95;;
75922;SDS011;64602;47.542;19.090;2023-02-21T10:05:03;3.92;;;1.00;;
75922;SDS011;64602;47.542;19.090;2023-02-21T10:10:26;4.23;;;0.90;;
75922;SDS011;64602;47.542;19.090;2023-02-21T10:15:36;3.30;;;1.20;;
75922;SDS011;64602;47.542;19.090;2023-02-21T10:20:46;2.53;;;0.80;;
75922;SDS011;64602;47.542;19.090;2023-02-21T10:25:54;4.57;;;1.47;;
75922;SDS011;64602;47.542;19.090;2023-02-21T10:31:02;2.93;;;1.10;;
75922;SDS011;64602;47.542;19.090;2023-02-21T10:36:13;3.05;;;0.90;;
75922;SDS011;64602;47.542;19.090;2023-02-21T10:41:19;3.60;;;1.10;;
75922;SDS011;64602;47.542;19.090;2023-02-21T10:51:32;2.62;;;0.90;;
75922;SDS011;64602;47.542;19.090;2023-02-21T10:56:35;2.85;;;0.98;;
75922;SDS011;64602;47.542;19.090;2023-02-21T11:01:43;2.50;;;0.83;;
75922;SDS011;64602;47.542;19.090;2023-02-21T11:06:48;3.03;;;1.00;;
75922;SDS011;64602;47.542;19.090;2023-02-21T11:12:11;2.30;;;0.80;;
75922;SDS011;64602;47.542;19.090;2023-02-21T11:17:21;2.60;;;1.07;;
75922;SDS011;64602;47.542;19.090;2023-02-21T11:27:36;3.75;;;0.90;;
75922;SDS011;64602;47.542;19.090;2023-02-21T11:32:39;3.15;;;1.20;;
75922;SDS011;64602;47.542;19.090;2023-02-21T11:37:59;3.53;;;1.30;;
75922;SDS011;64602;47.542;19.090;2023-02-21T11:48:20;2.92;;;1.33;;
75922;SDS011;64602;47.542;19.090;2023-02-21T11:53:49;3.00;;;0.90;;
75922;SDS011;64602;47.542;19.090;2023-02-21T11:58:55;3.55;;;0.80;;
75922;SDS011;64602;47.542;19.090;2023-02-21T12:26:04;3.75;;;1.17;;
75922;SDS011;64602;47.542;19.090;2023-02-21T12:36:58;3.28;;;1.20;;
75922;SDS011;64602;47.542;19.090;2023-02-21T12:53:14;2.25;;;1.10;;
75922;SDS011;64602;47.542;19.090;2023-02-21T12:58:23;4.28;;;1.17;;
75922;SDS011;64602;47.542;19.090;2023-02-21T13:13:52;2.62;;;1.20;;
75922;SDS011;64602;47.542;19.090;2023-02-21T13:18:55;4.55;;;1.00;;
75922;SDS011;64602;47.542;19.090;2023-02-21T13:24:01;2.03;;;0.87;;
75922;SDS011;64602;47.542;19.090;2023-02-21T13:29:17;4.43;;;0.80;;
75922;SDS011;64602;47.542;19.090;2023-02-21T13:34:19;2.30;;;0.70;;
75922;SDS011;64602;47.542;19.090;2023-02-21T13:39:29;1.90;;;0.60;;
75922;SDS011;64602;47.542;19.090;2023-02-21T13:44:41;2.08;;;0.60;;
75922;SDS011;64602;47.542;19.090;2023-02-21T13:50:39;3.37;;;1.02;;
75922;SDS011;64602;47.542;19.090;2023-02-21T13:55:39;3.33;;;0.83;;
75922;SDS011;64602;47.542;19.090;2023-02-21T14:00:54;3.13;;;1.07;;
75922;SDS011;64602;47.542;19.090;2023-02-21T14:21:58;2.53;;;0.98;;
75922;SDS011;64602;47.542;19.090;2023-02-21T14:26:36;3.65;;;0.98;;
75922;SDS011;64602;47.542;19.090;2023-02-21T14:31:45;2.97;;;0.90;;
75922;SDS011;64602;47.542;19.090;2023-02-21T14:36:49;2.83;;;0.62;;
75922;SDS011;64602;47.542;19.090;2023-02-21T15:03:21;2.15;;;0.55;;
75922;SDS011;64602;47.542;19.090;2023-02-21T15:08:29;2.33;;;0.90;;
75922;SDS011;64602;47.542;19.090;2023-02-21T15:13:41;2.17;;;0.77;;
75922;SDS011;64602;47.542;19.090;2023-02-21T15:18:57;3.00;;;0.52;;
75922;SDS011;64602;47.542;19.090;2023-02-21T15:24:12;1.90;;;0.50;;
75922;SDS011;64602;47.542;19.090;2023-02-21T15:29:17;2.40;;;0.62;;
75922;SDS011;64602;47.542;19.090;2023-02-21T15:34:26;2.22;;;1.00;;
75922;SDS011;64602;47.542;19.090;2023-02-21T15:39:37;2.83;;;0.90;;
75922;SDS011;64602;47.542;19.090;2023-02-21T16:05:27;3.72;;;0.88;;
75922;SDS011;64602;47.542;19.090;2023-02-21T16:10:30;5.95;;;1.20;;
75922;SDS011;64602;47.542;19.090;2023-02-21T16:15:33;4.67;;;1.40;;
75922;SDS011;64602;47.542;19.090;2023-02-21T16:20:38;4.55;;;1.25;;
75922;SDS011;64602;47.542;19.090;2023-02-21T16:31:05;3.80;;;1.27;;
75922;SDS011;64602;47.542;19.090;2023-02-21T16:36:16;2.73;;;1.10;;
75922;SDS011;64602;47.542;19.090;2023-02-21T16:41:21;4.18;;;1.50;;
75922;SDS011;64602;47.542;19.090;2023-02-21T16:46:24;3.50;;;1.50;;
75922;SDS011;64602;47.542;19.090;2023-02-21T16:51:30;3.93;;;1.20;;
75922;SDS011;64602;47.542;19.090;2023-02-21T16:56:36;2.45;;;1.15;;
75922;SDS011;64602;47.542;19.090;2023-02-21T17:01:40;5.95;;;1.40;;
75922;SDS011;64602;47.542;19.090;2023-02-21T17:06:49;4.53;;;1.90;;
75922;SDS011;64602;47.542;19.090;2023-02-21T17:11:54;4.97;;;1.58;;
75922;SDS011;64602;47.542;19.090;2023-02-21T17:16:57;3.75;;;1.25;;
75922;SDS011;64602;47.542;19.090;2023-02-21T17:21:59;2.83;;;1.23;;
75922;SDS011;64602;47.542;19.090;2023-02-21T17:27:01;3.30;;;1.60;;
75922;SDS011;64602;47.542;19.090;2023-02-21T17:32:03;4.00;;;1.75;;
75922;SDS011;64602;47.542;19.090;2023-02-21T17:37:07;4.70;;;1.90;;
75922;SDS011;64602;47.542;19.090;2023-02-21T17:42:13;6.23;;;1.67;;
75922;SDS011;64602;47.542;19.090;2023-02-21T17:47:15;4.43;;;1.85;;
75922;SDS011;64602;47.542;19.090;2023-02-21T17:52:19;5.82;;;2.03;;
75922;SDS011;64602;47.542;19.090;2023-02-21T17:57:22;3.23;;;1.67;;
75922;SDS011;64602;47.542;19.090;2023-02-21T18:02:24;3.70;;;1.70;;
75922;SDS011;64602;47.542;19.090;2023-02-21T18:07:26;3.03;;;1.40;;
75922;SDS011;64602;47.542;19.090;2023-02-21T18:12:32;3.23;;;1.30;;
75922;SDS011;64602;47.542;19.090;2023-02-21T18:17:35;2.87;;;1.10;;
75922;SDS011;64602;47.542;19.090;2023-02-21T18:22:38;3.33;;;1.20;;
75922;SDS011;64602;47.542;19.090;2023-02-21T18:27:40;4.28;;;1.40;;
75922;SDS011;64602;47.542;19.090;2023-02-21T18:32:42;3.50;;;1.50;;
75922;SDS011;64602;47.542;19.090;2023-02-21T18:37:45;3.65;;;1.50;;
75922;SDS011;64602;47.542;19.090;2023-02-21T18:42:48;3.60;;;1.58;;
75922;SDS011;64602;47.542;19.090;2023-02-21T18:47:50;5.23;;;2.40;;
75922;SDS011;64602;47.542;19.090;2023-02-21T18:52:52;3.97;;;1.67;;
75922;SDS011;64602;47.542;19.090;2023-02-21T18:57:54;5.35;;;2.12;;
75922;SDS011;64602;47.542;19.090;2023-02-21T19:02:57;4.53;;;1.83;;
75922;SDS011;64602;47.542;19.090;2023-02-21T19:08:00;3.50;;;1.53;;
75922;SDS011;64602;47.542;19.090;2023-02-21T19:13:02;4.20;;;1.50;;
75922;SDS011;64602;47.542;19.090;2023-02-21T19:18:06;5.10;;;1.92;;
75922;SDS011;64602;47.542;19.090;2023-02-21T19:23:08;3.47;;;1.63;;
75922;SDS011;64602;47.542;19.090;2023-02-21T19:28:10;3.00;;;1.55;;
75922;SDS011;64602;47.542;19.090;2023-02-21T19:33:12;4.05;;;1.85;;
75922;SDS011;64602;47.542;19.090;2023-02-21T19:38:15;6.20;;;2.20;;
75922;SDS011;64602;47.542;19.090;2023-02-21T19:43:17;4.75;;;2.17;;
75922;SDS011;64602;47.542;19.090;2023-02-21T19:48:20;4.72;;;2.17;;
75922;SDS011;64602;47.542;19.090;2023-02-21T19:53:22;6.40;;;2.50;;
75922;SDS011;64602;47.542;19.090;2023-02-21T19:58:24;5.10;;;2.40;;
75922;SDS011;64602;47.542;19.090;2023-02-21T20:03:26;5.78;;;2.55;;
75922;SDS011;64602;47.542;19.090;2023-02-21T20:08:29;6.78;;;3.30;;
75922;SDS011;64602;47.542;19.090;2023-02-21T20:13:31;5.23;;;2.63;;
75922;SDS011;64602;47.542;19.090;2023-02-21T20:18:33;6.60;;;3.53;;
75922;SDS011;64602;47.542;19.090;2023-02-21T20:23:41;7.95;;;2.90;;
75922;SDS011;64602;47.542;19.090;2023-02-21T20:28:45;6.40;;;3.17;;
75922;SDS011;64602;47.542;19.090;2023-02-21T20:33:48;7.40;;;3.08;;
75922;SDS011;64602;47.542;19.090;2023-02-21T20:38:50;5.15;;;2.78;;
75922;SDS011;64602;47.542;19.090;2023-02-21T20:43:52;5.00;;;2.90;;
75922;SDS011;64602;47.542;19.090;2023-02-21T20:48:54;4.57;;;2.27;;
75922;SDS011;64602;47.542;19.090;2023-02-21T20:53:59;5.35;;;2.50;;
75922;SDS011;64602;47.542;19.090;2023-02-21T20:59:02;5.53;;;2.30;;
75922;SDS011;64602;47.542;19.090;2023-02-21T21:04:05;4.87;;;2.20;;
75922;SDS011;64602;47.542;19.090;2023-02-21T21:09:08;5.37;;;2.60;;
75922;SDS011;64602;47.542;19.090;2023-02-21T21:14:11;4.00;;;2.25;;
75922;SDS011;64602;47.542;19.090;2023-02-21T21:19:17;5.63;;;2.30;;
